Lexa Maersk — OYYL2 — position and weather

sailwx.info

Track history (hours):
 
Tides and Currents Weather Stations Pressure Air Temp Water Temp Dewpoint Dewpoint Depression Visibility Wind Speed Wind Dir Waves Ship Positions

Lexa Maersk

Last reported at 2017-Dec-18 05:00 UTC. Time now 2017-Dec-18 05:14 UTC.
Position S 46°03' E 170°35'.

Length 265.8 m; beam 37.3 m; draft 14 m.

Type: Cargo ship. MMSI: 219979000.

Date/timePositionNaut miles runAvg speedWind from/ knotsBaromVisibWave heightAir tempDewpointWater temp
2017-Dec-18 05:00S 46°03' E 170°35'714.6
2017-Dec-18 04:30S 45°58' E 170°42'713.6
2017-Dec-18 03:57S 45°52' E 170°48'7 7.7
2017-Dec-18 03:02S 45°46' E 170°43'0 9.4
2017-Dec-18 03:00S 45°46' E 170°43'5 7.1
2017-Dec-18 02:19S 45°49' E 170°38'0 0.0
2017-Dec-17 03:10S 45°49' E 170°38'0 2.8
2017-Dec-17 03:00S 45°48' E 170°38'4 8.1
2017-Dec-17 02:31S 45°47' E 170°43'  
2017-Dec-13 22:00S 37°32' E 176°18'713.5
2017-Dec-13 21:31S 37°36' E 176°11'4 7.3
2017-Dec-13 21:01S 37°40' E 176°11'0 0.3
2017-Dec-13 20:30S 37°40' E 176°11'0 0.0
2017-Dec-12 19:42S 37°40' E 176°11'0 0.0
2017-Dec-12 19:31S 37°40' E 176°11'0 0.0
2017-Dec-12 19:01S 37°40' E 176°11'0 0.0
2017-Dec-12 18:31S 37°40' E 176°11'0 0.0
2017-Dec-12 18:01S 37°40' E 176°11'0 0.0
2017-Dec-12 17:31S 37°40' E 176°11'0 0.0
2017-Dec-12 17:01S 37°40' E 176°11'0 0.0
2017-Dec-12 16:31S 37°40' E 176°11'0 0.9
2017-Dec-12 16:01S 37°39' E 176°11'5 9.4
2017-Dec-12 15:31S 37°35' E 176°12'5 9.8
2017-Dec-12 15:01S 37°30' E 176°11'  
2017-Dec-09 16:06S 26°47' E 153°11'415.3
2017-Dec-09 15:51S 26°50' E 153°09'617.8
2017-Dec-09 15:30S 26°55' E 153°12'917.2
2017-Dec-09 15:00S 27°03' E 153°17'816.3
2017-Dec-09 14:30S 27°10' E 153°21'815.7
2017-Dec-09 14:00S 27°16' E 153°16'713.7
2017-Dec-09 13:30S 27°22' E 153°11'0 0.6
2017-Dec-09 13:00S 27°22' E 153°11'0 0.0
2017-Dec-09 12:30S 27°22' E 153°11'0 0.0
2017-Dec-09 12:00S 27°22' E 153°11'0 0.0
2017-Dec-09 11:30S 27°22' E 153°11'0 0.0
2017-Dec-09 11:00S 27°22' E 153°11'0 0.0
2017-Dec-09 10:30S 27°22' E 153°11'0 0.0
2017-Dec-09 09:57S 27°22' E 153°11'0 0.0
2017-Dec-09 09:30S 27°22' E 153°11'0 0.0
2017-Dec-09 09:00S 27°22' E 153°11'0 0.0
2017-Dec-09 08:30S 27°22' E 153°11'0 0.0
2017-Dec-09 08:00S 27°22' E 153°11'0 0.0
2017-Dec-09 07:18S 27°22' E 153°11'0 0.0
2017-Dec-09 06:57S 27°22' E 153°11'0 0.0
2017-Dec-09 06:30S 27°22' E 153°11'0 0.0
2017-Dec-09 05:48S 27°22' E 153°11'0 0.0
2017-Dec-09 05:24S 27°22' E 153°11'0 0.0
2017-Dec-09 03:42S 27°22' E 153°11'0 0.0
2017-Dec-09 03:24S 27°22' E 153°11'0 0.0
2017-Dec-09 02:51S 27°22' E 153°11'0 0.0
2017-Dec-09 02:24S 27°22' E 153°11'0 0.0
2017-Dec-09 02:00S 27°22' E 153°11'0 0.0
2017-Dec-09 01:21S 27°22' E 153°11'0 0.0
2017-Dec-09 00:42S 27°22' E 153°11'0 0.0
2017-Dec-09 00:22S 27°22' E 153°11'0 0.0
2017-Dec-08 23:55S 27°22' E 153°11'0 0.0
2017-Dec-08 23:25S 27°22' E 153°11'0 0.0
2017-Dec-08 22:58S 27°22' E 153°11'0 0.0
2017-Dec-08 22:22S 27°22' E 153°11'0 0.0
2017-Dec-08 21:52S 27°22' E 153°11'0 0.0
2017-Dec-08 21:28S 27°22' E 153°11'0 0.0
2017-Dec-08 20:37S 27°22' E 153°11'0 0.0
2017-Dec-08 20:28S 27°22' E 153°11'0 0.0
2017-Dec-08 19:58S 27°22' E 153°11'0 0.0
2017-Dec-08 19:28S 27°22' E 153°11'0 0.0
2017-Dec-08 18:58S 27°22' E 153°11'0 0.0
2017-Dec-08 18:25S 27°22' E 153°11'0 0.0
2017-Dec-08 17:58S 27°22' E 153°11'0 0.0
2017-Dec-08 16:43S 27°22' E 153°11'0 0.0
2017-Dec-08 16:28S 27°22' E 153°11'0 0.0
2017-Dec-08 15:58S 27°22' E 153°11'0 0.0
2017-Dec-08 15:28S 27°22' E 153°11'0 0.0
2017-Dec-08 14:58S 27°22' E 153°11'0 0.0
2017-Dec-08 14:28S 27°22' E 153°11'0 0.0
2017-Dec-08 13:58S 27°22' E 153°11'0 0.0
2017-Dec-08 13:28S 27°22' E 153°11'0 0.0
2017-Dec-08 12:58S 27°22' E 153°11'0 0.0
2017-Dec-08 12:30S 27°22' E 153°11'1 1.4
2017-Dec-08 12:00S 27°21' E 153°11'612.7
2017-Dec-08 11:30S 27°16' E 153°15'713.8
2017-Dec-08 11:00S 27°11' E 153°21'714.7
2017-Dec-08 10:30S 27°04' E 153°18'714.4
2017-Dec-08 10:00S 26°58' E 153°14'815.2
2017-Dec-08 09:30S 26°52' E 153°09'612.0
2017-Dec-08 09:00S 26°46' E 153°12'5 8.5
2017-Dec-08 08:27S 26°41' E 153°12'5 9.8
2017-Dec-08 07:54S 26°37' E 153°15'  
Track history (hours):
 
Tides and Currents Weather Stations Pressure Air Temp Water Temp Dewpoint Dewpoint Depression Visibility Wind Speed Wind Dir Waves Ship Positions

Lexa Maersk

Last reported at 2017-Dec-18 05:00 UTC. Time now 2017-Dec-18 05:14 UTC.
Position S 46°03' E 170°35'.

Length 265.8 m; beam 37.3 m; draft 14 m.

Type: Cargo ship. MMSI: 219979000.

Date/timePositionNaut miles runAvg speedWind from/ knotsBaromVisibWave heightAir tempDewpointWater temp
2017-Dec-18 05:00S 46°03' E 170°35'714.6
2017-Dec-18 04:30S 45°58' E 170°42'713.6
2017-Dec-18 03:57S 45°52' E 170°48'7 7.7
2017-Dec-18 03:02S 45°46' E 170°43'0 9.4
2017-Dec-18 03:00S 45°46' E 170°43'5 7.1
2017-Dec-18 02:19S 45°49' E 170°38'0 0.0
2017-Dec-17 03:10S 45°49' E 170°38'0 2.8
2017-Dec-17 03:00S 45°48' E 170°38'4 8.1
2017-Dec-17 02:31S 45°47' E 170°43'  
2017-Dec-13 22:00S 37°32' E 176°18'713.5
2017-Dec-13 21:31S 37°36' E 176°11'4 7.3
2017-Dec-13 21:01S 37°40' E 176°11'0 0.3
2017-Dec-13 20:30S 37°40' E 176°11'0 0.0
2017-Dec-12 19:42S 37°40' E 176°11'0 0.0
2017-Dec-12 19:31S 37°40' E 176°11'0 0.0
2017-Dec-12 19:01S 37°40' E 176°11'0 0.0
2017-Dec-12 18:31S 37°40' E 176°11'0 0.0
2017-Dec-12 18:01S 37°40' E 176°11'0 0.0
2017-Dec-12 17:31S 37°40' E 176°11'0 0.0
2017-Dec-12 17:01S 37°40' E 176°11'0 0.0
2017-Dec-12 16:31S 37°40' E 176°11'0 0.9
2017-Dec-12 16:01S 37°39' E 176°11'5 9.4
2017-Dec-12 15:31S 37°35' E 176°12'5 9.8
2017-Dec-12 15:01S 37°30' E 176°11'  
2017-Dec-09 16:06S 26°47' E 153°11'415.3
2017-Dec-09 15:51S 26°50' E 153°09'617.8
2017-Dec-09 15:30S 26°55' E 153°12'917.2
2017-Dec-09 15:00S 27°03' E 153°17'816.3
2017-Dec-09 14:30S 27°10' E 153°21'815.7
2017-Dec-09 14:00S 27°16' E 153°16'713.7
2017-Dec-09 13:30S 27°22' E 153°11'0 0.6
2017-Dec-09 13:00S 27°22' E 153°11'0 0.0
2017-Dec-09 12:30S 27°22' E 153°11'0 0.0
2017-Dec-09 12:00S 27°22' E 153°11'0 0.0
2017-Dec-09 11:30S 27°22' E 153°11'0 0.0
2017-Dec-09 11:00S 27°22' E 153°11'0 0.0
2017-Dec-09 10:30S 27°22' E 153°11'0 0.0
2017-Dec-09 09:57S 27°22' E 153°11'0 0.0
2017-Dec-09 09:30S 27°22' E 153°11'0 0.0
2017-Dec-09 09:00S 27°22' E 153°11'0 0.0
2017-Dec-09 08:30S 27°22' E 153°11'0 0.0
2017-Dec-09 08:00S 27°22' E 153°11'0 0.0
2017-Dec-09 07:18S 27°22' E 153°11'0 0.0
2017-Dec-09 06:57S 27°22' E 153°11'0 0.0
2017-Dec-09 06:30S 27°22' E 153°11'0 0.0
2017-Dec-09 05:48S 27°22' E 153°11'0 0.0
2017-Dec-09 05:24S 27°22' E 153°11'0 0.0
2017-Dec-09 03:42S 27°22' E 153°11'0 0.0
2017-Dec-09 03:24S 27°22' E 153°11'0 0.0
2017-Dec-09 02:51S 27°22' E 153°11'0 0.0
2017-Dec-09 02:24S 27°22' E 153°11'0 0.0
2017-Dec-09 02:00S 27°22' E 153°11'0 0.0
2017-Dec-09 01:21S 27°22' E 153°11'0 0.0
2017-Dec-09 00:42S 27°22' E 153°11'0 0.0
2017-Dec-09 00:22S 27°22' E 153°11'0 0.0
2017-Dec-08 23:55S 27°22' E 153°11'0 0.0
2017-Dec-08 23:25S 27°22' E 153°11'0 0.0
2017-Dec-08 22:58S 27°22' E 153°11'0 0.0
2017-Dec-08 22:22S 27°22' E 153°11'0 0.0
2017-Dec-08 21:52S 27°22' E 153°11'0 0.0
2017-Dec-08 21:28S 27°22' E 153°11'0 0.0
2017-Dec-08 20:37S 27°22' E 153°11'0 0.0
2017-Dec-08 20:28S 27°22' E 153°11'0 0.0
2017-Dec-08 19:58S 27°22' E 153°11'0 0.0
2017-Dec-08 19:28S 27°22' E 153°11'0 0.0
2017-Dec-08 18:58S 27°22' E 153°11'0 0.0
2017-Dec-08 18:25S 27°22' E 153°11'0 0.0
2017-Dec-08 17:58S 27°22' E 153°11'0 0.0
2017-Dec-08 16:43S 27°22' E 153°11'0 0.0
2017-Dec-08 16:28S 27°22' E 153°11'0 0.0
2017-Dec-08 15:58S 27°22' E 153°11'0 0.0
2017-Dec-08 15:28S 27°22' E 153°11'0 0.0
2017-Dec-08 14:58S 27°22' E 153°11'0 0.0
2017-Dec-08 14:28S 27°22' E 153°11'0 0.0
2017-Dec-08 13:58S 27°22' E 153°11'0 0.0
2017-Dec-08 13:28S 27°22' E 153°11'0 0.0
2017-Dec-08 12:58S 27°22' E 153°11'0 0.0
2017-Dec-08 12:30S 27°22' E 153°11'1 1.4
2017-Dec-08 12:00S 27°21' E 153°11'612.7
2017-Dec-08 11:30S 27°16' E 153°15'713.8
2017-Dec-08 11:00S 27°11' E 153°21'714.7
2017-Dec-08 10:30S 27°04' E 153°18'714.4
2017-Dec-08 10:00S 26°58' E 153°14'815.2
2017-Dec-08 09:30S 26°52' E 153°09'612.0
2017-Dec-08 09:00S 26°46' E 153°12'5 8.5
2017-Dec-08 08:27S 26°41' E 153°12'5 9.8
2017-Dec-08 07:54S 26°37' E 153°15'  

Dump ship's entire track history